createdAt,value
2022-09-30T00:01:25.929Z,7.10
2022-09-30T00:03:57.424Z,7.10
2022-09-30T00:06:28.263Z,7.10
2022-09-30T00:08:55.912Z,7.10
2022-09-30T00:11:25.543Z,7.10
2022-09-30T00:13:53.784Z,7.10
2022-09-30T00:16:22.507Z,7.20
2022-09-30T00:18:49.968Z,7.10
2022-09-30T00:21:17.483Z,7.10
2022-09-30T00:23:45.243Z,7.20
2022-09-30T00:26:15.147Z,7.10
2022-09-30T00:28:43.445Z,7.10
2022-09-30T00:31:15.374Z,7.10
2022-09-30T00:33:43.277Z,7.20
2022-09-30T00:36:11.122Z,7.20
2022-09-30T00:38:38.118Z,7.20
2022-09-30T00:41:05.067Z,7.10
2022-09-30T00:43:53.528Z,7.20
2022-09-30T00:46:44.283Z,7.10
2022-09-30T00:49:29.887Z,7.10
2022-09-30T00:51:58.003Z,7.10
2022-09-30T00:54:29.753Z,7.10
2022-09-30T00:57:01.024Z,6.90
2022-09-30T00:59:38.427Z,6.90
2022-09-30T01:02:06.345Z,6.90
2022-09-30T01:04:34.912Z,6.90
2022-09-30T01:07:11.614Z,6.90
2022-09-30T01:09:40.886Z,6.90
2022-09-30T01:12:14.345Z,7.00
2022-09-30T01:14:41.936Z,7.00
2022-09-30T01:17:21.283Z,7.10
2022-09-30T01:20:21.853Z,7.10
2022-09-30T01:23:03.714Z,7.20
2022-09-30T01:25:58.227Z,7.30
2022-09-30T01:28:43.724Z,7.30
2022-09-30T01:31:19.415Z,7.40
2022-09-30T01:34:09.510Z,7.30
2022-09-30T01:36:59.498Z,7.30
2022-09-30T01:39:48.296Z,7.40
2022-09-30T01:42:28.049Z,7.50
2022-09-30T01:45:11.089Z,7.50
2022-09-30T01:48:10.413Z,7.50
2022-09-30T01:50:46.479Z,7.50
2022-09-30T01:53:51.942Z,7.40
2022-09-30T01:56:27.829Z,7.40
2022-09-30T01:59:23.392Z,7.40
2022-09-30T02:01:58.983Z,7.40
2022-09-30T02:04:33.215Z,7.30
2022-09-30T02:07:07.861Z,7.30
2022-09-30T02:09:47.128Z,7.20
2022-09-30T02:12:18.913Z,7.20
2022-09-30T02:15:09.584Z,7.10
2022-09-30T02:17:43.353Z,7.10
2022-09-30T02:20:20.960Z,7.30
2022-09-30T02:22:51.019Z,7.30
2022-09-30T02:25:30.079Z,7.30
2022-09-30T02:28:01.557Z,7.40
2022-09-30T02:30:29.309Z,7.40
2022-09-30T02:32:59.983Z,7.40
2022-09-30T02:35:33.662Z,7.40
2022-09-30T02:38:10.824Z,7.50
2022-09-30T02:40:45.039Z,7.50
2022-09-30T02:43:11.893Z,7.50
2022-09-30T02:45:49.990Z,7.50
2022-09-30T02:48:26.564Z,7.50
2022-09-30T02:51:11.343Z,7.50
2022-09-30T02:53:58.085Z,7.50
2022-09-30T02:56:50.627Z,7.50
2022-09-30T02:59:17.668Z,7.40
2022-09-30T03:01:44.726Z,7.50
2022-09-30T03:04:15.106Z,7.50
2022-09-30T03:06:42.097Z,7.60
2022-09-30T03:09:09.998Z,7.60
2022-09-30T03:11:38.388Z,7.70
2022-09-30T03:14:42.578Z,7.80
2022-09-30T03:18:03.822Z,7.90
2022-09-30T03:20:46.872Z,8.00
2022-09-30T03:23:23.579Z,8.00
2022-09-30T03:25:57.422Z,8.00
2022-09-30T03:28:42.603Z,7.90
2022-09-30T03:31:21.656Z,7.90
2022-09-30T03:33:54.007Z,7.80
2022-09-30T03:36:51.352Z,7.80
2022-09-30T03:39:33.931Z,7.80
2022-09-30T03:42:11.223Z,7.70
2022-09-30T03:44:55.043Z,7.80
2022-09-30T03:47:25.349Z,7.80
2022-09-30T03:49:57.589Z,7.90
2022-09-30T03:52:26.401Z,7.90
2022-09-30T03:54:56.575Z,7.80
2022-09-30T03:57:23.443Z,7.70
2022-09-30T03:59:50.397Z,7.60
2022-09-30T04:02:17.267Z,7.70
2022-09-30T04:04:44.142Z,7.60
2022-09-30T04:07:11.233Z,7.50
2022-09-30T04:09:38.847Z,7.50
2022-09-30T04:12:06.882Z,7.50
2022-09-30T04:14:34.669Z,7.40
2022-09-30T04:17:02.389Z,7.50
2022-09-30T04:19:29.278Z,7.50
2022-09-30T04:21:56.224Z,7.50
2022-09-30T04:24:24.499Z,7.50
2022-09-30T04:26:52.260Z,7.50
2022-09-30T04:29:19.112Z,7.50
2022-09-30T04:31:46.134Z,7.60
2022-09-30T04:34:13.152Z,7.60
2022-09-30T04:36:40.731Z,7.60
2022-09-30T04:39:07.640Z,7.50
2022-09-30T04:41:34.445Z,7.50
2022-09-30T04:44:06.239Z,7.60
2022-09-30T04:46:36.896Z,7.80
2022-09-30T04:49:08.686Z,8.00
2022-09-30T04:51:36.366Z,8.00
2022-09-30T04:54:03.717Z,8.00
2022-09-30T04:56:30.783Z,8.00
2022-09-30T04:58:57.720Z,8.00
2022-09-30T05:01:25.243Z,8.00
2022-09-30T05:03:52.408Z,8.00
2022-09-30T05:06:19.734Z,8.00
2022-09-30T05:08:46.884Z,8.10
2022-09-30T05:11:18.794Z,8.10
2022-09-30T05:13:47.514Z,8.10
2022-09-30T05:16:15.717Z,8.20
2022-09-30T05:18:45.887Z,8.30
2022-09-30T05:21:15.057Z,8.30
2022-09-30T05:23:42.039Z,8.30
2022-09-30T05:26:12.200Z,8.20
2022-09-30T05:28:40.951Z,8.20
2022-09-30T05:31:08.245Z,8.20
2022-09-30T05:33:36.140Z,8.20
2022-09-30T05:36:06.178Z,8.20
2022-09-30T05:38:33.685Z,8.20
2022-09-30T05:41:08.517Z,8.30
2022-09-30T05:43:37.368Z,8.10
2022-09-30T05:46:04.319Z,8.20
2022-09-30T05:48:31.200Z,8.20
2022-09-30T05:51:01.057Z,8.20
2022-09-30T05:53:28.984Z,8.10
2022-09-30T05:55:55.989Z,8.20
2022-09-30T05:58:23.271Z,8.20
2022-09-30T06:00:50.868Z,8.30
2022-09-30T06:03:18.593Z,8.40
2022-09-30T06:05:46.153Z,8.40
2022-09-30T06:08:14.406Z,8.50
2022-09-30T06:10:43.404Z,8.60
2022-09-30T06:13:10.898Z,8.60
2022-09-30T06:15:39.030Z,8.60
2022-09-30T06:18:06.172Z,8.60
2022-09-30T06:20:33.216Z,8.50
2022-09-30T06:23:00.781Z,8.50
2022-09-30T06:25:28.791Z,8.50
2022-09-30T06:27:55.717Z,8.40
2022-09-30T06:30:22.606Z,8.50
2022-09-30T06:32:49.568Z,8.50
2022-09-30T06:35:17.061Z,8.50
2022-09-30T06:37:45.582Z,8.60
2022-09-30T06:40:12.520Z,8.70
2022-09-30T06:42:39.364Z,8.60
2022-09-30T06:45:06.837Z,8.70
2022-09-30T06:47:33.678Z,8.90
2022-09-30T06:50:00.571Z,9.10
2022-09-30T06:52:27.632Z,9.20
2022-09-30T06:54:58.353Z,9.20
2022-09-30T06:57:28.324Z,9.30
2022-09-30T06:59:55.733Z,9.40
2022-09-30T07:02:22.627Z,9.50
2022-09-30T07:04:50.414Z,9.60
2022-09-30T07:07:17.452Z,9.70
2022-09-30T07:09:44.384Z,9.80
2022-09-30T07:12:11.244Z,10.00
2022-09-30T07:14:43.707Z,10.00
2022-09-30T07:19:55.819Z,10.30
2022-09-30T07:22:32.359Z,10.20
2022-09-30T07:25:01.102Z,10.20
2022-09-30T07:27:29.224Z,10.00
2022-09-30T07:30:09.247Z,9.90
2022-09-30T07:32:37.548Z,9.80
2022-09-30T07:35:05.548Z,9.70
2022-09-30T07:37:36.103Z,9.70
2022-09-30T07:40:07.437Z,9.60
2022-09-30T07:42:38.020Z,9.50
2022-09-30T07:45:05.317Z,9.50
2022-09-30T07:47:32.167Z,9.50
2022-09-30T07:49:59.715Z,9.50
2022-09-30T07:52:26.566Z,9.60
2022-09-30T07:54:53.363Z,9.90
2022-09-30T07:57:21.753Z,10.10
2022-09-30T07:59:48.596Z,10.30
2022-09-30T08:02:18.395Z,10.50
2022-09-30T08:04:45.808Z,10.60
2022-09-30T08:07:14.450Z,10.90
2022-09-30T08:09:41.468Z,11.00
2022-09-30T08:12:09.035Z,11.20
2022-09-30T08:14:35.967Z,11.30
2022-09-30T08:17:02.926Z,11.40
2022-09-30T08:19:31.078Z,11.50
2022-09-30T08:21:58.561Z,11.60
2022-09-30T08:24:26.657Z,11.70
2022-09-30T08:26:54.341Z,11.80
2022-09-30T08:29:42.427Z,12.00
2022-09-30T08:32:08.319Z,12.10
2022-09-30T08:34:35.967Z,12.20
2022-09-30T08:37:08.869Z,12.40
2022-09-30T08:39:39.875Z,12.50
2022-09-30T08:42:49.187Z,12.50
2022-09-30T08:45:41.235Z,12.60
2022-09-30T08:48:29.100Z,12.60
2022-09-30T08:51:22.899Z,12.70
2022-09-30T08:53:51.101Z,12.80
2022-09-30T08:56:28.057Z,12.80
2022-09-30T08:59:01.085Z,13.00
2022-09-30T09:01:36.620Z,13.10
2022-09-30T09:04:06.677Z,13.20
2022-09-30T09:07:15.492Z,13.30
2022-09-30T09:09:45.072Z,13.30
2022-09-30T09:12:56.032Z,13.30
2022-09-30T09:15:52.158Z,13.30
2022-09-30T09:18:25.270Z,13.30
2022-09-30T09:20:57.083Z,13.30
2022-09-30T09:23:25.453Z,13.30
2022-09-30T09:25:55.827Z,13.30
2022-09-30T09:28:51.796Z,13.30
2022-09-30T09:31:21.354Z,13.40
2022-09-30T09:33:48.255Z,13.40
2022-09-30T09:36:26.975Z,13.50
2022-09-30T09:39:15.624Z,13.60
2022-09-30T09:41:54.755Z,13.60
2022-09-30T09:44:34.485Z,13.60
2022-09-30T09:47:17.184Z,13.80
2022-09-30T09:49:45.871Z,13.90
2022-09-30T09:52:12.690Z,13.80
2022-09-30T09:54:52.544Z,13.90
2022-09-30T09:57:27.886Z,13.90
2022-09-30T10:00:24.091Z,14.10
2022-09-30T10:03:18.772Z,14.20
2022-09-30T10:05:58.296Z,14.30
2022-09-30T10:08:25.426Z,14.30
2022-09-30T10:10:55.479Z,14.40
2022-09-30T10:13:26.653Z,14.40
2022-09-30T10:15:56.807Z,14.50
2022-09-30T10:18:38.083Z,14.40
2022-09-30T10:21:25.943Z,14.10
2022-09-30T10:23:52.919Z,13.90
2022-09-30T10:26:29.570Z,13.90
2022-09-30T10:28:57.675Z,14.10
2022-09-30T10:31:32.062Z,14.20
2022-09-30T10:34:28.428Z,14.30
2022-09-30T10:36:57.097Z,14.30
2022-09-30T10:39:30.064Z,14.20
2022-09-30T10:42:08.731Z,14.40
2022-09-30T10:44:45.992Z,14.50
2022-09-30T10:47:22.686Z,14.80
2022-09-30T10:49:51.847Z,14.60
2022-09-30T10:52:26.002Z,14.60
2022-09-30T10:55:22.553Z,14.60
2022-09-30T10:57:53.032Z,14.50
2022-09-30T11:00:25.372Z,14.50
2022-09-30T11:02:57.940Z,14.60
2022-09-30T11:05:31.275Z,14.90
2022-09-30T11:08:09.642Z,15.20
2022-09-30T11:10:45.277Z,15.20
2022-09-30T11:13:12.087Z,15.30
2022-09-30T11:16:03.477Z,15.40
2022-09-30T11:18:35.212Z,15.20
2022-09-30T11:21:10.347Z,14.90
2022-09-30T11:23:46.085Z,14.60
2022-09-30T11:26:33.647Z,14.80
2022-09-30T11:29:03.549Z,15.00
2022-09-30T11:31:48.543Z,15.20
2022-09-30T11:34:32.717Z,15.20
2022-09-30T11:37:12.669Z,15.20
2022-09-30T11:40:14.082Z,15.00
2022-09-30T11:43:25.494Z,15.00
2022-09-30T11:46:04.566Z,14.90
2022-09-30T11:49:22.645Z,15.00
2022-09-30T11:52:10.978Z,14.90
2022-09-30T11:54:59.606Z,14.80
2022-09-30T11:57:38.637Z,14.90
2022-09-30T12:00:17.712Z,15.00
2022-09-30T12:02:50.638Z,15.00
2022-09-30T12:05:28.793Z,15.10
2022-09-30T12:08:03.524Z,15.10
2022-09-30T12:10:36.522Z,15.20
2022-09-30T12:13:14.105Z,15.30
2022-09-30T12:15:44.129Z,15.30
2022-09-30T12:18:26.158Z,15.40
2022-09-30T12:21:01.936Z,15.30
2022-09-30T12:23:31.900Z,15.10
2022-09-30T12:26:01.160Z,15.30
2022-09-30T12:29:10.384Z,15.20
2022-09-30T12:31:52.001Z,15.30
2022-09-30T12:34:31.957Z,15.20
2022-09-30T12:37:32.561Z,15.20
2022-09-30T12:40:03.022Z,15.30
2022-09-30T12:42:38.953Z,14.90
2022-09-30T12:45:24.268Z,14.90
2022-09-30T12:47:58.687Z,15.20
2022-09-30T12:50:40.968Z,15.30
2022-09-30T12:53:30.908Z,15.60
2022-09-30T12:56:10.516Z,15.90
2022-09-30T12:58:44.145Z,15.90
2022-09-30T13:01:30.407Z,15.80
2022-09-30T13:04:00.096Z,15.80
2022-09-30T13:06:48.065Z,16.20
2022-09-30T13:09:18.041Z,16.10
2022-09-30T13:12:12.401Z,15.70
2022-09-30T13:14:43.516Z,15.30
2022-09-30T13:17:13.531Z,15.30
2022-09-30T13:19:52.714Z,15.20
2022-09-30T13:22:24.776Z,15.10
2022-09-30T13:25:03.311Z,15.00
2022-09-30T13:27:48.379Z,15.10
2022-09-30T13:30:17.900Z,15.30
2022-09-30T13:33:05.732Z,15.10
2022-09-30T13:35:51.877Z,14.80
2022-09-30T13:38:21.914Z,14.40
2022-09-30T13:41:03.243Z,14.30
2022-09-30T13:43:45.220Z,14.40
2022-09-30T13:46:35.661Z,14.50
2022-09-30T13:49:19.633Z,14.50
2022-09-30T13:51:46.456Z,14.50
2022-09-30T13:54:32.811Z,14.40
2022-09-30T13:57:00.606Z,14.30
2022-09-30T14:00:05.934Z,13.90
2022-09-30T14:02:39.110Z,13.70
2022-09-30T14:05:26.156Z,13.70
2022-09-30T14:08:17.603Z,13.50
2022-09-30T14:11:02.564Z,13.50
2022-09-30T14:14:24.968Z,13.80
2022-09-30T14:17:13.031Z,13.90
2022-09-30T14:19:49.237Z,13.70
2022-09-30T14:22:16.473Z,13.30
2022-09-30T14:24:43.634Z,13.10
2022-09-30T14:27:28.077Z,12.90
2022-09-30T14:29:57.990Z,12.50
2022-09-30T14:32:43.317Z,12.30
2022-09-30T14:35:18.297Z,12.10
2022-09-30T14:38:05.585Z,11.90
2022-09-30T14:40:42.456Z,11.70
2022-09-30T14:43:16.727Z,11.60
2022-09-30T14:45:45.959Z,11.50
2022-09-30T14:48:21.656Z,11.40
2022-09-30T14:51:00.544Z,11.30
2022-09-30T14:53:43.551Z,11.20
2022-09-30T14:56:31.886Z,11.10
2022-09-30T14:59:00.954Z,11.00
2022-09-30T15:01:34.863Z,10.90
2022-09-30T15:04:18.443Z,10.80
2022-09-30T15:06:50.916Z,10.80
2022-09-30T15:09:40.435Z,10.80
2022-09-30T15:12:12.258Z,10.70
2022-09-30T15:14:49.558Z,10.70
2022-09-30T15:17:28.853Z,10.60
2022-09-30T15:19:57.874Z,10.60
2022-09-30T15:22:28.331Z,10.50
2022-09-30T15:24:56.806Z,10.50
2022-09-30T15:27:37.188Z,10.70
2022-09-30T15:30:26.875Z,10.70
2022-09-30T15:32:59.467Z,10.60
2022-09-30T15:35:26.728Z,10.60
2022-09-30T15:37:53.840Z,10.50
2022-09-30T15:40:42.636Z,10.30
2022-09-30T15:43:16.420Z,10.10
2022-09-30T15:45:45.439Z,10.10
2022-09-30T15:48:25.892Z,10.00
2022-09-30T15:51:01.476Z,9.80
2022-09-30T15:53:32.270Z,9.70
2022-09-30T15:56:15.940Z,9.70
2022-09-30T15:58:58.016Z,9.70
2022-09-30T16:01:45.774Z,9.60
2022-09-30T16:04:15.766Z,9.50
2022-09-30T16:06:50.661Z,9.40
2022-09-30T16:09:20.461Z,9.40
2022-09-30T16:12:25.105Z,9.40
2022-09-30T16:15:14.407Z,9.50
2022-09-30T16:17:47.329Z,9.50
2022-09-30T16:20:14.553Z,9.40
2022-09-30T16:22:41.351Z,9.50
2022-09-30T16:25:11.408Z,9.40
2022-09-30T16:27:39.090Z,9.40
2022-09-30T16:30:07.700Z,9.40
2022-09-30T16:32:41.075Z,9.30
2022-09-30T16:35:19.952Z,9.40
2022-09-30T16:37:48.469Z,9.40
2022-09-30T16:40:19.803Z,9.40
2022-09-30T16:42:47.037Z,9.40
2022-09-30T16:45:15.162Z,9.40
2022-09-30T16:47:43.311Z,9.30
2022-09-30T16:50:38.288Z,9.40
2022-09-30T16:53:05.541Z,9.50
2022-09-30T16:55:32.935Z,9.40
2022-09-30T16:58:00.202Z,9.50
2022-09-30T17:00:28.604Z,9.50
2022-09-30T17:02:55.549Z,9.40
2022-09-30T17:05:24.639Z,9.40
2022-09-30T17:07:54.185Z,9.40
2022-09-30T17:10:25.636Z,9.40
2022-09-30T17:12:53.068Z,9.40
2022-09-30T17:15:20.924Z,9.40
2022-09-30T17:17:48.165Z,9.40
2022-09-30T17:20:15.391Z,9.40
2022-09-30T17:22:42.272Z,9.40
2022-09-30T17:25:10.346Z,9.50
2022-09-30T17:27:37.943Z,9.40
2022-09-30T17:30:06.738Z,9.50
2022-09-30T17:32:33.601Z,9.50
2022-09-30T17:35:00.427Z,9.60
2022-09-30T17:37:30.295Z,9.60
2022-09-30T17:39:57.316Z,9.60
2022-09-30T17:42:43.089Z,9.50
2022-09-30T17:45:10.651Z,9.50
2022-09-30T17:47:39.730Z,9.60
2022-09-30T17:50:07.174Z,9.70
2022-09-30T17:52:34.435Z,9.60
2022-09-30T17:55:01.546Z,9.60
2022-09-30T17:57:28.547Z,9.60
2022-09-30T17:59:58.919Z,9.60
2022-09-30T18:02:25.853Z,9.60
2022-09-30T18:04:54.395Z,9.50
2022-09-30T18:07:23.828Z,9.60
2022-09-30T18:09:51.219Z,9.50
2022-09-30T18:12:18.006Z,9.50
2022-09-30T18:14:45.226Z,9.60
2022-09-30T18:17:12.208Z,9.60
2022-09-30T18:19:39.062Z,9.60
2022-09-30T18:22:05.915Z,9.60
2022-09-30T18:24:51.256Z,9.60
2022-09-30T18:27:18.128Z,9.60
2022-09-30T18:29:44.970Z,9.60
2022-09-30T18:32:11.822Z,9.60
2022-09-30T18:34:38.728Z,9.60
2022-09-30T18:37:06.701Z,9.60
2022-09-30T18:39:39.943Z,9.60
2022-09-30T18:42:06.802Z,9.60
2022-09-30T18:44:37.513Z,9.70
2022-09-30T18:47:05.546Z,9.90
2022-09-30T18:49:32.448Z,9.80
2022-09-30T18:51:59.825Z,9.90
2022-09-30T18:54:26.693Z,9.80
2022-09-30T18:56:53.570Z,9.80
2022-09-30T18:59:23.260Z,9.80
2022-09-30T19:01:51.051Z,9.70
2022-09-30T19:04:18.238Z,9.70
2022-09-30T19:06:47.631Z,9.70
2022-09-30T19:09:16.477Z,9.70
2022-09-30T19:11:44.943Z,9.70
2022-09-30T19:14:13.247Z,9.70
2022-09-30T19:16:40.541Z,9.70
2022-09-30T19:19:10.570Z,9.70
2022-09-30T19:21:39.037Z,9.70
2022-09-30T19:24:07.985Z,9.90
2022-09-30T19:26:37.365Z,9.90
2022-09-30T19:29:09.660Z,9.90
2022-09-30T19:31:37.518Z,9.90
2022-09-30T19:34:06.301Z,9.80
2022-09-30T19:36:42.962Z,9.80
2022-09-30T19:39:13.992Z,9.80
2022-09-30T19:41:41.107Z,9.80
2022-09-30T19:44:08.113Z,9.80
2022-09-30T19:46:34.952Z,9.90
2022-09-30T19:49:02.156Z,9.90
2022-09-30T19:51:31.000Z,9.90
2022-09-30T19:54:05.958Z,9.90
2022-09-30T19:56:34.559Z,9.90
2022-09-30T19:59:01.492Z,9.90
2022-09-30T20:01:29.531Z,9.90
2022-09-30T20:03:59.225Z,9.90
2022-09-30T20:06:27.750Z,9.90
2022-09-30T20:09:00.181Z,10.00
2022-09-30T20:11:29.925Z,10.00
2022-09-30T20:14:16.025Z,9.90
2022-09-30T20:16:48.383Z,10.00
2022-09-30T20:19:17.194Z,10.00
2022-09-30T20:21:44.667Z,10.00
2022-09-30T20:24:14.107Z,9.90
2022-09-30T20:26:42.441Z,9.90
2022-09-30T20:29:10.054Z,9.90
2022-09-30T20:31:42.115Z,9.90
2022-09-30T20:34:14.555Z,9.80
2022-09-30T20:36:41.973Z,9.70
2022-09-30T20:39:09.274Z,9.70
2022-09-30T20:41:37.856Z,9.70
2022-09-30T20:44:13.760Z,9.70
2022-09-30T20:46:44.413Z,9.70
2022-09-30T20:49:11.305Z,9.70
2022-09-30T20:51:38.353Z,9.70
2022-09-30T20:54:05.228Z,9.70
2022-09-30T20:56:44.431Z,9.70
2022-09-30T20:59:19.449Z,9.70
2022-09-30T21:01:46.288Z,9.70
2022-09-30T21:04:13.148Z,9.70
2022-09-30T21:06:39.984Z,9.70
2022-09-30T21:09:06.858Z,9.60
2022-09-30T21:11:34.029Z,9.50
2022-09-30T21:14:01.885Z,9.40
2022-09-30T21:16:29.689Z,9.30
2022-09-30T21:18:56.724Z,9.20
2022-09-30T21:21:25.788Z,9.10
2022-09-30T21:23:55.589Z,9.00
2022-09-30T21:26:22.629Z,8.90
2022-09-30T21:28:50.858Z,8.80
2022-09-30T21:31:24.160Z,8.70
2022-09-30T21:33:53.437Z,8.70
2022-09-30T21:36:21.360Z,8.60
2022-09-30T21:38:49.875Z,8.60
2022-09-30T21:41:17.166Z,8.50
2022-09-30T21:43:44.496Z,8.50
2022-09-30T21:46:13.997Z,8.40
2022-09-30T21:48:41.521Z,8.40
2022-09-30T21:51:09.718Z,8.40
2022-09-30T21:53:37.003Z,8.40
2022-09-30T21:56:04.499Z,8.50
2022-09-30T21:58:33.052Z,8.50
2022-09-30T22:01:02.306Z,8.50
2022-09-30T22:03:31.708Z,8.40
2022-09-30T22:05:59.201Z,8.40
2022-09-30T22:08:26.602Z,8.50
2022-09-30T22:10:53.578Z,8.40
2022-09-30T22:13:20.432Z,8.40
2022-09-30T22:15:47.708Z,8.40
2022-09-30T22:18:19.925Z,8.30
2022-09-30T22:20:48.148Z,8.30
2022-09-30T22:23:15.403Z,8.30
2022-09-30T22:25:42.348Z,8.20
2022-09-30T22:28:10.353Z,8.20
2022-09-30T22:30:37.570Z,8.10
2022-09-30T22:33:22.876Z,8.10
2022-09-30T22:36:08.532Z,8.00
2022-09-30T22:38:35.418Z,7.90
2022-09-30T22:41:03.000Z,7.90
2022-09-30T22:43:32.166Z,7.90
2022-09-30T22:46:04.040Z,7.90
2022-09-30T22:48:31.515Z,7.80
2022-09-30T22:50:59.800Z,7.60
2022-09-30T22:53:27.600Z,7.60
2022-09-30T22:55:55.221Z,7.50
2022-09-30T22:58:24.479Z,7.40
2022-09-30T23:00:55.905Z,7.40
2022-09-30T23:03:23.322Z,7.30
2022-09-30T23:05:50.261Z,7.20
2022-09-30T23:08:17.422Z,7.20
2022-09-30T23:10:50.882Z,7.20
2022-09-30T23:13:20.385Z,7.10
2022-09-30T23:15:47.943Z,7.10
2022-09-30T23:18:17.332Z,7.00
2022-09-30T23:20:54.616Z,7.00
2022-09-30T23:23:21.401Z,6.90
2022-09-30T23:25:48.236Z,6.90
2022-09-30T23:28:15.071Z,6.80
2022-09-30T23:30:41.917Z,6.80
2022-09-30T23:33:12.071Z,6.80
2022-09-30T23:35:44.598Z,6.80
2022-09-30T23:38:11.429Z,6.80
2022-09-30T23:40:48.751Z,6.80
2022-09-30T23:43:15.938Z,6.80
2022-09-30T23:45:43.078Z,6.80
2022-09-30T23:48:10.059Z,6.70
2022-09-30T23:50:36.942Z,6.70
2022-09-30T23:53:03.810Z,6.70
2022-09-30T23:55:30.830Z,6.70
2022-09-30T23:57:58.064Z,6.80
